Time;durP1;ratioP1;P1;durP2;ratioP2;P2;SDS_P1;SDS_P2;PMS_P1;PMS_P2;Temp;Humidity;BMP_temperature;BMP_pressure;BME280_temperature;BME280_humidity;BME280_pressure;Samples;Min_cycle;Max_cycle;Signal;HPM_P1;HPM_P2
2023/12/20 00:01:41;;;;;;;39.15;27.23;;;;;;;1.52;100.00;99768.06;4972349;28;20181;-85
2023/12/20 00:04:07;;;;;;;40.40;27.40;;;;;;;1.57;100.00;99769.50;4975304;28;20030;-85
2023/12/20 00:06:33;;;;;;;42.38;27.30;;;;;;;1.61;100.00;99767.56;4974249;28;20083;-85
2023/12/20 00:08:58;;;;;;;40.40;25.90;;;;;;;1.67;100.00;99772.44;4970468;28;20053;-84
2023/12/20 00:11:24;;;;;;;42.17;27.98;;;;;;;1.69;100.00;99768.00;4977826;28;20050;-83
2023/12/20 00:13:50;;;;;;;43.00;27.45;;;;;;;1.61;100.00;99759.75;4970093;28;20125;-85
2023/12/20 00:16:15;;;;;;;38.13;26.23;;;;;;;1.51;100.00;99749.00;4972775;28;20049;-85
2023/12/20 00:18:41;;;;;;;38.78;27.40;;;;;;;1.46;100.00;99744.97;4972057;28;20063;-83
2023/12/20 00:21:06;;;;;;;39.95;27.02;;;;;;;1.46;100.00;99734.56;4971281;28;20019;-83
2023/12/20 00:23:32;;;;;;;40.72;27.42;;;;;;;1.47;100.00;99746.66;4971065;28;20690;-85
2023/12/20 00:25:58;;;;;;;38.40;27.27;;;;;;;1.33;100.00;99738.72;4950884;28;20162;-85
2023/12/20 00:28:23;;;;;;;39.70;26.25;;;;;;;1.18;100.00;99733.41;4966645;28;20041;-86
2023/12/20 00:30:49;;;;;;;45.05;29.55;;;;;;;1.05;100.00;99740.16;4974637;28;20022;-87
2023/12/20 00:33:14;;;;;;;49.35;31.15;;;;;;;0.90;100.00;99740.09;4984810;28;20042;-86
2023/12/20 00:35:40;;;;;;;43.17;29.80;;;;;;;0.77;100.00;99734.66;4984251;28;20102;-87
2023/12/20 00:38:06;;;;;;;45.70;29.77;;;;;;;0.73;100.00;99720.16;4984138;28;20038;-85
2023/12/20 00:40:33;;;;;;;46.88;30.83;;;;;;;0.75;100.00;99715.75;4995400;28;20112;-86
2023/12/20 00:42:58;;;;;;;43.65;30.95;;;;;;;0.81;100.00;99715.44;4975612;28;20122;-86
2023/12/20 00:45:24;;;;;;;45.95;31.27;;;;;;;0.95;100.00;99710.34;4985877;28;20133;-85
2023/12/20 00:47:49;;;;;;;47.85;30.80;;;;;;;1.09;100.00;99707.91;4974751;28;20177;-84
2023/12/20 00:50:16;;;;;;;43.35;29.30;;;;;;;1.17;100.00;99697.94;4981787;28;20515;-84
2023/12/20 00:52:41;;;;;;;40.90;28.95;;;;;;;1.26;100.00;99680.16;4974265;28;20039;-84
2023/12/20 00:55:07;;;;;;;48.25;31.38;;;;;;;1.22;100.00;99675.16;4975565;28;20038;-85
2023/12/20 00:57:33;;;;;;;43.83;30.52;;;;;;;1.35;100.00;99684.91;4973143;28;20542;-84
2023/12/20 00:59:59;;;;;;;41.13;28.23;;;;;;;1.47;100.00;99684.25;4973850;28;20494;-84
2023/12/20 01:02:24;;;;;;;46.88;31.88;;;;;;;1.49;100.00;99687.59;4976428;28;20759;-84
2023/12/20 01:04:50;;;;;;;46.53;30.48;;;;;;;1.48;100.00;99702.34;4978960;28;20038;-85
2023/12/20 01:07:15;;;;;;;44.03;30.15;;;;;;;1.37;100.00;99706.44;4973231;28;20046;-83
2023/12/20 01:09:41;;;;;;;47.88;32.58;;;;;;;1.21;100.00;99709.84;4977151;28;20039;-86
2023/12/20 01:12:06;;;;;;;48.58;32.35;;;;;;;0.95;100.00;99707.75;4956534;28;20138;-85
2023/12/20 01:14:32;;;;;;;51.83;32.83;;;;;;;0.78;100.00;99700.00;4971625;28;20039;-85
2023/12/20 01:16:58;;;;;;;44.97;30.75;;;;;;;0.68;100.00;99699.63;4976373;28;20118;-85
2023/12/20 01:19:24;;;;;;;47.38;31.48;;;;;;;0.70;100.00;99684.81;4974945;28;20030;-81
2023/12/20 01:21:50;;;;;;;41.47;31.00;;;;;;;0.78;100.00;99677.44;4971652;28;20046;-84
2023/12/20 01:24:15;;;;;;;48.83;31.85;;;;;;;0.85;100.00;99675.38;4975072;28;20027;-82
2023/12/20 01:26:41;;;;;;;45.10;30.95;;;;;;;0.96;100.00;99678.25;4974244;28;20042;-83
2023/12/20 01:29:07;;;;;;;47.65;30.95;;;;;;;1.05;100.00;99688.19;4974053;28;20052;-85
2023/12/20 01:31:32;;;;;;;46.53;30.95;;;;;;;1.09;100.00;99683.66;4974612;28;20062;-84
2023/12/20 01:33:58;;;;;;;47.10;32.08;;;;;;;1.09;100.00;99689.72;4975436;28;20035;-83
2023/12/20 01:36:23;;;;;;;46.25;30.55;;;;;;;1.10;100.00;99680.16;4973367;28;20062;-84
2023/12/20 01:38:49;;;;;;;45.28;29.73;;;;;;;1.09;100.00;99673.28;4976065;28;20035;-83
2023/12/20 01:41:15;;;;;;;43.58;30.58;;;;;;;1.10;100.00;99662.81;4977978;28;20030;-85
2023/12/20 01:43:40;;;;;;;45.33;30.38;;;;;;;1.04;100.00;99660.53;4974021;28;20038;-84
2023/12/20 01:46:06;;;;;;;43.15;29.58;;;;;;;1.14;100.00;99638.31;4976589;28;20051;-85
2023/12/20 01:48:32;;;;;;;45.20;30.52;;;;;;;1.16;100.00;99639.09;4975494;28;20045;-84
2023/12/20 01:51:00;;;;;;;46.75;32.30;;;;;;;1.12;100.00;99624.56;4974231;28;20105;-85
2023/12/20 01:53:27;;;;;;;45.50;30.63;;;;;;;1.19;100.00;99623.31;4979848;28;20487;-84
2023/12/20 01:55:54;;;;;;;47.45;30.33;;;;;;;1.17;100.00;99619.97;4973802;28;20038;-83
2023/12/20 01:58:21;;;;;;;44.40;31.20;;;;;;;1.13;100.00;99628.84;4973146;28;20039;-84
2023/12/20 02:00:47;;;;;;;47.13;28.67;;;;;;;1.20;100.00;99647.53;4972078;28;20085;-83
2023/12/20 02:03:13;;;;;;;41.22;28.52;;;;;;;1.22;100.00;99656.97;4978838;28;20031;-85
2023/12/20 02:05:39;;;;;;;46.00;29.83;;;;;;;1.11;100.00;99651.50;4966748;28;20046;-84
2023/12/20 02:08:06;;;;;;;47.28;30.55;;;;;;;1.07;100.00;99652.56;4970403;28;20038;-84
2023/12/20 02:10:32;;;;;;;40.67;28.92;;;;;;;1.09;100.00;99648.13;4970385;28;20395;-83
2023/12/20 02:12:58;;;;;;;42.47;29.13;;;;;;;1.11;100.00;99630.69;4969723;28;20070;-84
2023/12/20 02:15:24;;;;;;;47.42;29.05;;;;;;;1.12;100.00;99634.16;4971324;28;20491;-83
2023/12/20 02:17:50;;;;;;;43.95;28.92;;;;;;;1.16;100.00;99622.66;4975554;28;20100;-84
2023/12/20 02:20:15;;;;;;;44.50;30.52;;;;;;;1.19;100.00;99623.31;4969785;28;20040;-85
2023/12/20 02:22:41;;;;;;;47.63;31.27;;;;;;;1.17;100.00;99619.97;4976742;28;20105;-83
2023/12/20 02:25:07;;;;;;;48.95;30.85;;;;;;;1.17;100.00;99619.97;4970941;28;20046;-83
2023/12/20 02:27:33;;;;;;;44.25;30.25;;;;;;;1.17;100.00;99630.38;4973105;28;20435;-83
2023/12/20 02:29:58;;;;;;;45.88;30.98;;;;;;;1.05;100.00;99633.63;4968711;28;20057;-82
2023/12/20 02:32:27;;;;;;;48.13;31.52;;;;;;;0.89;100.00;99637.94;4969373;28;20137;-84
2023/12/20 02:34:53;;;;;;;45.20;30.98;;;;;;;0.79;100.00;99634.13;4971057;28;20038;-85
2023/12/20 02:37:19;;;;;;;45.03;30.48;;;;;;;0.78;100.00;99640.25;4974608;28;20086;-83
2023/12/20 02:39:44;;;;;;;42.50;29.83;;;;;;;0.75;100.00;99637.81;4971894;28;20024;-83
2023/12/20 02:42:10;;;;;;;42.45;30.00;;;;;;;0.73;100.00;99624.06;4975563;28;20085;-82
2023/12/20 02:44:36;;;;;;;47.88;30.17;;;;;;;0.76;100.00;99618.72;4972845;28;20039;-82
2023/12/20 02:47:02;;;;;;;47.20;29.92;;;;;;;0.73;100.00;99603.28;4973689;28;20030;-84
2023/12/20 02:49:28;;;;;;;42.10;29.38;;;;;;;0.85;100.00;99594.84;4968058;28;20034;-82
2023/12/20 02:51:53;;;;;;;40.60;29.27;;;;;;;0.94;100.00;99586.59;4970998;28;20031;-84
2023/12/20 02:54:19;;;;;;;42.00;28.65;;;;;;;1.00;100.00;99590.63;4967210;28;20101;-82
2023/12/20 02:56:44;;;;;;;42.22;29.33;;;;;;;1.06;100.00;99593.69;4963657;28;20137;-81
2023/12/20 02:59:10;;;;;;;41.35;28.38;;;;;;;1.06;100.00;99585.91;4965984;28;20110;-84
2023/12/20 03:01:42;;;;;;;44.63;29.42;;;;;;;1.08;100.00;99578.88;4969694;28;20043;-82
2023/12/20 03:04:07;;;;;;;46.25;29.25;;;;;;;1.15;100.00;99577.63;4969026;28;20194;-82
2023/12/20 03:06:33;;;;;;;42.40;28.70;;;;;;;1.17;100.00;99583.59;4969381;28;20035;-83
2023/12/20 03:08:59;;;;;;;40.20;28.23;;;;;;;1.22;100.00;99576.38;4968955;28;20478;-83
2023/12/20 03:11:28;;;;;;;42.22;28.08;;;;;;;1.23;100.00;99588.47;4968628;28;20460;-83
2023/12/20 03:13:55;;;;;;;42.63;28.90;;;;;;;1.21;100.00;99594.66;4970555;28;20027;-82
2023/12/20 03:16:20;;;;;;;43.17;28.70;;;;;;;1.15;100.00;99589.78;4964762;28;20047;-82
2023/12/20 03:18:46;;;;;;;45.20;28.58;;;;;;;1.08;100.00;99578.88;4969478;28;20193;-83
2023/12/20 03:21:11;;;;;;;42.85;30.30;;;;;;;0.94;100.00;99571.00;4968458;28;20391;-81
2023/12/20 03:23:37;;;;;;;42.40;29.23;;;;;;;0.93;100.00;99553.72;4966556;28;20035;-83
2023/12/20 03:26:03;;;;;;;42.75;29.83;;;;;;;1.07;100.00;99551.19;4973038;28;20110;-83
2023/12/20 03:28:29;;;;;;;40.55;28.95;;;;;;;1.01;100.00;99550.69;4968776;28;20035;-83
2023/12/20 03:30:55;;;;;;;47.15;29.65;;;;;;;1.11;100.00;99541.50;4973145;28;20054;-84
2023/12/20 03:33:20;;;;;;;41.45;28.08;;;;;;;1.18;100.00;99540.22;4971205;28;20181;-83
2023/12/20 03:35:46;;;;;;;41.13;28.67;;;;;;;1.23;100.00;99557.25;4969838;28;20035;-84
2023/12/20 03:38:12;;;;;;;43.60;29.35;;;;;;;1.10;100.00;99561.44;4980067;28;20062;-83
2023/12/20 03:40:37;;;;;;;46.50;30.13;;;;;;;1.03;100.00;99565.28;4984442;28;20030;-85
2023/12/20 03:43:03;;;;;;;42.80;30.75;;;;;;;0.96;100.00;99569.13;4980733;28;20054;-83
2023/12/20 03:45:29;;;;;;;45.60;29.63;;;;;;;0.80;100.00;99550.09;4975057;28;20514;-84
2023/12/20 03:47:54;;;;;;;45.95;29.00;;;;;;;0.77;100.00;99539.84;4970977;28;20023;-83
2023/12/20 03:50:22;;;;;;;39.10;27.15;;;;;;;0.79;100.00;99545.81;4972821;28;20054;-84
2023/12/20 03:52:47;;;;;;;39.15;27.42;;;;;;;0.86;100.00;99530.75;4972835;28;20038;-85
2023/12/20 03:55:13;;;;;;;41.80;27.42;;;;;;;0.82;100.00;99511.91;4970829;28;20042;-83
2023/12/20 03:57:39;;;;;;;40.70;28.15;;;;;;;0.90;100.00;99507.13;4970730;28;20159;-84
2023/12/20 04:00:11;;;;;;;38.85;26.60;;;;;;;0.95;100.00;99520.69;4972842;28;20050;-84
2023/12/20 04:02:41;;;;;;;45.95;28.23;;;;;;;1.02;100.00;99522.03;4972139;28;20038;-82
2023/12/20 04:05:08;;;;;;;41.03;27.30;;;;;;;1.06;100.00;99507.94;4976149;28;20058;-82
2023/12/20 04:07:34;;;;;;;38.30;27.60;;;;;;;1.09;100.00;99515.59;4970394;28;20035;-83
2023/12/20 04:09:59;;;;;;;42.50;27.55;;;;;;;1.11;100.00;99516.34;4968570;28;20058;-82
2023/12/20 04:12:26;;;;;;;40.22;27.83;;;;;;;1.02;100.00;99511.63;4971394;28;20038;-85
2023/12/20 04:14:51;;;;;;;42.30;28.02;;;;;;;0.91;100.00;99514.00;4980865;28;20372;-84
2023/12/20 04:17:17;;;;;;;40.20;28.42;;;;;;;0.87;100.00;99499.50;4975308;28;20042;-85
2023/12/20 04:19:43;;;;;;;41.22;27.92;;;;;;;0.72;100.00;99498.56;4983541;28;20078;-82
2023/12/20 04:22:09;;;;;;;38.60;27.58;;;;;;;0.84;100.00;99491.84;4974448;28;20054;-83
2023/12/20 04:24:35;;;;;;;39.35;27.02;;;;;;;0.83;100.00;99498.81;4972068;28;20034;-83
2023/12/20 04:27:01;;;;;;;43.38;27.92;;;;;;;0.72;100.00;99502.91;4978229;28;20460;-83
2023/12/20 04:29:27;;;;;;;44.75;26.90;;;;;;;0.74;100.00;99498.47;4976924;28;20034;-85
2023/12/20 04:31:52;;;;;;;39.60;27.60;;;;;;;0.80;100.00;99490.34;4983685;28;20023;-85
2023/12/20 04:34:18;;;;;;;46.58;29.20;;;;;;;0.72;100.00;99487.31;4985776;28;20091;-83
2023/12/20 04:36:44;;;;;;;40.63;27.88;;;;;;;0.64;100.00;99471.34;4984468;28;20050;-84
2023/12/20 04:39:10;;;;;;;41.03;26.85;;;;;;;0.62;100.00;99473.16;4984523;28;20023;-84
2023/12/20 04:41:35;;;;;;;40.70;27.05;;;;;;;0.71;100.00;99477.84;4983617;28;20050;-83
2023/12/20 04:44:01;;;;;;;40.05;28.20;;;;;;;0.80;100.00;99464.38;4984668;28;20026;-84
2023/12/20 04:46:26;;;;;;;46.42;28.98;;;;;;;0.84;100.00;99463.28;4985375;28;20082;-83
2023/12/20 04:48:52;;;;;;;40.88;27.77;;;;;;;0.74;100.00;99454.31;4990592;28;20498;-84
2023/12/20 04:51:17;;;;;;;39.58;28.45;;;;;;;0.88;100.00;99461.38;4989242;28;20054;-84
2023/12/20 04:53:43;;;;;;;41.50;28.20;;;;;;;0.80;100.00;99470.41;4978318;28;20038;-83
2023/12/20 04:56:08;;;;;;;41.47;28.23;;;;;;;0.73;100.00;99476.03;4980740;28;20042;-82
2023/12/20 04:58:34;;;;;;;48.08;29.13;;;;;;;0.58;100.00;99480.31;4984839;28;20054;-84
2023/12/20 05:00:59;;;;;;;45.42;29.95;;;;;;;0.52;100.00;99490.16;4983427;28;20025;-82
2023/12/20 05:03:25;;;;;;;48.08;30.58;;;;;;;0.46;100.00;99469.72;4982891;28;20045;-83
2023/12/20 05:05:50;;;;;;;44.72;30.38;;;;;;;0.53;100.00;99460.69;4977495;28;20394;-82
2023/12/20 05:08:16;;;;;;;47.47;29.77;;;;;;;0.57;100.00;99480.38;4974728;28;20482;-84
2023/12/20 05:10:41;;;;;;;46.10;30.60;;;;;;;0.63;100.00;99467.91;4972994;28;20531;-85
2023/12/20 05:13:07;;;;;;;46.03;31.17;;;;;;;0.72;100.00;99471.75;4972070;28;20039;-86
2023/12/20 05:15:33;;;;;;;46.05;32.03;;;;;;;0.79;100.00;99465.31;4970113;28;20050;-84
2023/12/20 05:17:59;;;;;;;47.42;31.42;;;;;;;0.86;100.00;99453.66;4968624;28;20407;-84
2023/12/20 05:20:24;;;;;;;44.75;29.75;;;;;;;0.91;100.00;99454.25;4973811;28;20035;-84
2023/12/20 05:22:50;;;;;;;43.42;30.63;;;;;;;0.99;100.00;99459.03;4968634;28;20820;-84
2023/12/20 05:25:15;;;;;;;43.22;30.65;;;;;;;1.00;100.00;99447.72;4967974;28;20050;-82
2023/12/20 05:27:41;;;;;;;42.85;29.52;;;;;;;1.02;100.00;99444.09;4948351;28;20440;-85
2023/12/20 05:30:07;;;;;;;46.40;30.33;;;;;;;1.04;100.00;99426.66;4963885;28;20031;-86
2023/12/20 05:32:32;;;;;;;43.92;29.90;;;;;;;1.06;100.00;99424.78;4988780;28;20090;-82
2023/12/20 05:34:58;;;;;;;46.17;29.52;;;;;;;1.18;100.00;99429.28;4968218;28;20113;-84
2023/12/20 05:37:23;;;;;;;45.53;29.98;;;;;;;1.22;100.00;99436.00;4973526;28;20118;-85
2023/12/20 05:39:49;;;;;;;43.70;29.48;;;;;;;1.29;100.00;99430.47;4975278;28;20138;-84
2023/12/20 05:42:14;;;;;;;40.95;29.27;;;;;;;1.23;100.00;99424.69;4966634;28;20023;-84
2023/12/20 05:44:40;;;;;;;42.65;29.38;;;;;;;1.26;100.00;99423.66;4985055;28;20044;-85
2023/12/20 05:47:05;;;;;;;44.50;28.75;;;;;;;1.15;100.00;99439.88;4968779;28;20030;-83
2023/12/20 05:49:31;;;;;;;44.83;28.70;;;;;;;1.12;100.00;99426.22;4974312;28;20066;-85
2023/12/20 05:51:57;;;;;;;42.75;28.83;;;;;;;1.13;100.00;99431.31;4976217;28;20043;-86
2023/12/20 05:54:22;;;;;;;44.95;29.13;;;;;;;0.97;100.00;99430.50;4986404;28;20063;-85
2023/12/20 05:56:48;;;;;;;44.85;28.75;;;;;;;0.90;100.00;99429.19;4977626;28;20039;-85
2023/12/20 05:59:14;;;;;;;44.00;29.17;;;;;;;0.93;100.00;99434.22;4985688;28;20047;-82
2023/12/20 06:01:39;;;;;;;40.70;29.17;;;;;;;0.94;100.00;99441.09;4969035;28;20035;-83
2023/12/20 06:04:05;;;;;;;40.05;27.77;;;;;;;0.89;100.00;99443.09;4967127;28;20447;-82
2023/12/20 06:06:31;;;;;;;40.45;27.85;;;;;;;0.84;100.00;99450.28;4969652;28;20065;-78
2023/12/20 06:08:56;;;;;;;39.25;27.90;;;;;;;0.93;100.00;99439.41;4963020;28;20031;-80
2023/12/20 06:11:21;;;;;;;39.83;27.50;;;;;;;0.95;100.00;99427.16;4963056;28;20110;-81
2023/12/20 06:13:48;;;;;;;42.60;28.83;;;;;;;0.91;100.00;99423.06;4965385;28;20183;-82
2023/12/20 06:16:15;;;;;;;35.42;26.63;;;;;;;1.05;100.00;99425.75;4969609;28;20043;-79
2023/12/20 06:18:40;;;;;;;40.67;27.55;;;;;;;1.11;100.00;99417.59;4987149;28;20039;-78
2023/12/20 06:21:07;;;;;;;38.33;26.88;;;;;;;1.12;100.00;99423.63;4970226;28;20050;-78
2023/12/20 06:23:33;;;;;;;40.50;27.08;;;;;;;1.23;100.00;99436.84;4969551;28;20027;-78
2023/12/20 06:25:59;;;;;;;41.95;26.55;;;;;;;1.28;100.00;99428.78;4970159;28;20037;-85
2023/12/20 06:28:25;;;;;;;44.17;27.25;;;;;;;1.31;100.00;99449.41;4967404;28;20035;-85
2023/12/20 06:30:52;;;;;;;39.22;26.55;;;;;;;1.40;100.00;99434.13;4970956;28;20034;-80
2023/12/20 06:33:18;;;;;;;36.78;26.20;;;;;;;1.29;100.00;99430.47;4966586;28;20043;-85
2023/12/20 06:35:44;;;;;;;40.42;26.15;;;;;;;1.27;100.00;99432.31;4966879;28;20042;-87
2023/12/20 06:38:09;;;;;;;40.72;26.83;;;;;;;1.23;100.00;99429.91;4980860;28;20481;-80
2023/12/20 06:40:35;;;;;;;40.28;27.08;;;;;;;1.31;100.00;99433.81;4295494;28;10000728;-80
2023/12/20 06:43:00;;;;;;;44.70;27.52;;;;;;;1.28;100.00;99434.00;4964729;28;20174;-81
2023/12/20 06:45:26;;;;;;;42.40;26.55;;;;;;;1.28;100.00;99445.22;4962411;28;20443;-81
2023/12/20 06:47:51;;;;;;;40.60;26.83;;;;;;;1.31;100.00;99436.41;4963101;28;20395;-81
2023/12/20 06:50:17;;;;;;;39.63;26.52;;;;;;;1.34;100.00;99438.84;4977157;28;20039;-83
2023/12/20 06:52:42;;;;;;;41.53;26.25;;;;;;;1.41;100.00;99445.38;4970132;28;20040;-83
2023/12/20 06:55:08;;;;;;;42.60;26.92;;;;;;;1.44;100.00;99450.38;4976999;28;20033;-87
2023/12/20 06:57:35;;;;;;;41.72;26.88;;;;;;;1.44;100.00;99451.22;4634347;28;9999823;-86
2023/12/20 07:00:00;;;;;;;41.38;26.30;;;;;;;1.36;100.00;99448.22;4984106;28;20031;-86
2023/12/20 07:02:29;;;;;;;39.00;27.33;;;;;;;1.39;100.00;99448.03;4976749;28;20043;-87
2023/12/20 07:04:54;;;;;;;44.25;27.17;;;;;;;1.45;100.00;99446.84;4977506;28;20030;-86
2023/12/20 07:07:20;;;;;;;38.90;26.80;;;;;;;1.52;100.00;99442.97;4978106;28;20045;-88
2023/12/20 07:09:45;;;;;;;40.83;26.20;;;;;;;1.57;100.00;99438.34;4977469;28;20031;-82
2023/12/20 07:12:11;;;;;;;42.75;27.80;;;;;;;1.59;100.00;99428.69;4981187;28;20515;-85
2023/12/20 07:14:36;;;;;;;38.55;26.25;;;;;;;1.58;100.00;99422.66;4977813;28;20134;-84
2023/12/20 07:17:02;;;;;;;37.83;25.83;;;;;;;1.61;100.00;99432.03;4978684;28;20023;-84
2023/12/20 07:19:28;;;;;;;36.33;24.52;;;;;;;1.66;100.00;99440.41;4971314;28;20026;-83
2023/12/20 07:21:53;;;;;;;41.85;26.23;;;;;;;1.73;100.00;99440.88;4986913;28;20054;-82
2023/12/20 07:24:19;;;;;;;40.05;26.98;;;;;;;1.77;100.00;99439.78;4982808;28;20038;-82
2023/12/20 07:26:45;;;;;;;42.55;26.35;;;;;;;1.83;100.00;99452.41;4972741;28;20065;-83
2023/12/20 07:29:10;;;;;;;38.47;26.00;;;;;;;1.83;100.00;99468.03;4969226;28;20038;-84
2023/12/20 07:31:36;;;;;;;41.33;26.48;;;;;;;1.72;100.00;99460.84;4974841;28;20031;-83
2023/12/20 07:34:01;;;;;;;38.58;25.92;;;;;;;1.71;100.00;99473.97;4969262;28;20023;-83
2023/12/20 07:36:27;;;;;;;40.67;26.77;;;;;;;1.70;100.00;99465.31;4967247;28;20031;-83
2023/12/20 07:38:52;;;;;;;37.70;26.85;;;;;;;1.75;100.00;99465.06;4968719;28;20162;-82
2023/12/20 07:41:21;;;;;;;43.10;27.23;;;;;;;1.76;100.00;99480.56;4966387;28;20049;-82
2023/12/20 07:43:46;;;;;;;38.38;26.83;;;;;;;1.76;100.00;99485.78;4965712;28;20038;-81
2023/12/20 07:46:12;;;;;;;41.97;28.52;;;;;;;1.78;100.00;99481.31;4965671;28;20027;-83
2023/12/20 07:48:38;;;;;;;41.20;28.45;;;;;;;1.69;100.00;99466.25;4967696;28;20063;-85
2023/12/20 07:51:04;;;;;;;42.65;27.60;;;;;;;1.63;100.00;99456.19;4969272;28;20078;-83
2023/12/20 07:53:29;;;;;;;38.97;27.30;;;;;;;1.73;100.00;99439.13;4971569;28;20497;-83
2023/12/20 07:55:56;;;;;;;36.35;26.83;;;;;;;1.75;100.00;99439.88;4967471;28;20038;-83
2023/12/20 07:58:22;;;;;;;40.42;27.15;;;;;;;1.85;100.00;99456.59;4970707;28;20058;-83
2023/12/20 08:00:47;;;;;;;40.97;26.27;;;;;;;1.88;100.00;99451.25;4968702;28;20134;-83
2023/12/20 08:03:13;;;;;;;37.78;25.98;;;;;;;2.01;100.00;99436.53;4973501;28;20058;-86
2023/12/20 08:05:41;;;;;;;35.95;25.48;;;;;;;1.96;100.00;99436.00;4968025;28;20039;-79
2023/12/20 08:08:07;;;;;;;35.25;25.42;;;;;;;2.05;100.00;99432.84;4968951;28;20521;-81
2023/12/20 08:10:32;;;;;;;41.88;25.65;;;;;;;2.17;100.00;99441.69;4965718;28;20055;-79
2023/12/20 08:13:00;;;;;;;41.53;26.17;;;;;;;2.26;100.00;99445.47;4983720;28;20034;-81
2023/12/20 08:15:26;;;;;;;40.05;27.25;;;;;;;2.30;100.00;99466.03;4985494;28;20062;-80
2023/12/20 08:17:52;;;;;;;40.15;26.73;;;;;;;2.27;100.00;99462.78;4975059;28;20056;-80
2023/12/20 08:20:17;;;;;;;37.88;26.13;;;;;;;2.29;100.00;99466.13;4968123;28;20118;-79
2023/12/20 08:22:43;;;;;;;47.28;27.40;;;;;;;2.33;100.00;99458.03;4967029;28;20041;-81
2023/12/20 08:25:08;;;;;;;40.03;27.23;;;;;;;2.38;100.00;99465.56;4978593;28;20030;-81
2023/12/20 08:27:39;;;;;;;40.42;26.85;;;;;;;2.42;100.00;99473.09;4976985;28;20042;-81
2023/12/20 08:30:06;;;;;;;39.28;26.30;;;;;;;2.42;100.00;99475.69;4978055;28;20525;-80
2023/12/20 08:32:32;;;;;;;41.90;27.98;;;;;;;2.41;100.00;99481.03;4979354;28;20041;-81
2023/12/20 08:34:59;;;;;;;38.90;28.98;;;;;;;2.41;100.00;99470.59;4970291;28;20030;-82
2023/12/20 08:37:24;;;;;;;38.95;28.77;;;;;;;2.37;100.00;99463.88;4973575;28;20035;-80
2023/12/20 08:39:50;;;;;;;41.78;28.50;;;;;;;2.35;100.00;99461.41;4967100;28;20026;-81
2023/12/20 08:42:15;;;;;;;52.05;31.25;;;;;;;2.32;100.00;99465.94;4978639;28;20034;-81
2023/12/20 08:44:41;;;;;;;49.55;31.33;;;;;;;2.31;100.00;99474.69;4965046;28;20114;-80
2023/12/20 08:47:07;;;;;;;51.50;32.28;;;;;;;2.35;100.00;99481.41;4969303;28;20146;-83
2023/12/20 08:49:32;;;;;;;47.42;31.23;;;;;;;2.40;100.00;99481.94;4973910;28;20168;-82
2023/12/20 08:51:58;;;;;;;42.40;29.15;;;;;;;2.45;100.00;99482.50;4969073;28;20031;-81
2023/12/20 08:54:24;;;;;;;42.47;29.50;;;;;;;2.55;100.00;99488.81;4967448;28;20111;-81
2023/12/20 08:56:50;;;;;;;41.92;27.25;;;;;;;2.61;100.00;99472.81;4970285;28;20035;-82
2023/12/20 08:59:15;;;;;;;39.38;27.45;;;;;;;2.62;100.00;99473.66;4971989;28;20031;-80
2023/12/20 09:01:41;;;;;;;38.20;26.65;;;;;;;2.68;100.00;99481.91;4977041;28;20077;-81
2023/12/20 09:04:06;;;;;;;40.47;27.35;;;;;;;2.75;100.00;99475.41;4964205;28;20035;-81
2023/12/20 09:06:32;;;;;;;40.42;25.65;;;;;;;2.71;100.00;99473.91;4974945;28;20046;-82
2023/12/20 09:08:57;;;;;;;34.95;26.33;;;;;;;2.69;100.00;99475.78;4988335;28;20027;-81
2023/12/20 09:11:23;;;;;;;37.50;25.98;;;;;;;2.64;100.00;99483.06;4987920;28;20117;-80
2023/12/20 09:13:48;;;;;;;39.63;27.13;;;;;;;2.41;100.00;99481.03;4975008;28;20074;-80
2023/12/20 09:16:15;;;;;;;47.70;28.00;;;;;;;2.38;100.00;99473.38;4973322;28;20040;-79
2023/12/20 09:18:41;;;;;;;40.38;28.00;;;;;;;2.61;100.00;99475.41;4974031;28;20050;-81
2023/12/20 09:21:07;;;;;;;41.67;27.55;;;;;;;2.69;100.00;99477.56;4973470;28;20031;-81
2023/12/20 09:23:33;;;;;;;43.33;28.80;;;;;;;2.74;100.00;99484.16;4979655;28;20032;-81
2023/12/20 09:25:58;;;;;;;44.65;29.48;;;;;;;2.78;100.00;99487.38;4982020;28;20038;-81
2023/12/20 09:28:24;;;;;;;42.08;28.25;;;;;;;2.76;100.00;99466.66;4975707;28;20605;-81
2023/12/20 09:30:49;;;;;;;39.13;28.02;;;;;;;2.84;100.00;99469.59;4983330;28;20034;-81
2023/12/20 09:33:16;;;;;;;43.50;30.55;;;;;;;2.83;100.00;99473.13;4978887;28;20030;-82
2023/12/20 09:35:42;;;;;;;42.05;29.08;;;;;;;2.85;100.00;99468.69;4975907;28;20027;-80
2023/12/20 09:38:07;;;;;;;45.22;29.67;;;;;;;2.73;100.00;99472.03;4983047;28;20090;-82
2023/12/20 09:40:36;;;;;;;48.35;29.48;;;;;;;2.96;100.00;99462.78;4983311;28;20039;-81
2023/12/20 09:43:09;;;;;;;40.90;29.60;;;;;;;2.69;100.00;99454.09;4992483;28;20015;-80
2023/12/20 09:45:35;;;;;;;45.20;30.50;;;;;;;2.79;100.00;99450.81;4982941;28;20035;-80
2023/12/20 09:48:01;;;;;;;43.25;29.33;;;;;;;3.00;100.00;99442.59;4978341;28;20075;-81
2023/12/20 09:50:27;;;;;;;43.63;28.75;;;;;;;3.08;100.00;99448.13;4977485;28;20122;-81
2023/12/20 09:52:56;;;;;;;38.88;29.42;;;;;;;3.10;100.00;99454.09;4978514;28;20113;-82
2023/12/20 09:55:22;;;;;;;42.20;29.85;;;;;;;2.91;100.00;99448.38;4976610;28;20035;-82
2023/12/20 09:57:47;;;;;;;41.58;29.58;;;;;;;3.01;100.00;99452.06;4984534;28;20111;-81
2023/12/20 10:00:14;;;;;;;40.33;30.10;;;;;;;2.85;100.00;99444.38;4971432;28;20062;-79
2023/12/20 10:02:49;;;;;;;45.55;30.30;;;;;;;2.69;100.00;99444.53;4976327;28;20357;-82
2023/12/20 10:05:18;;;;;;;43.85;29.15;;;;;;;2.77;100.00;99442.25;4979704;28;20047;-80
2023/12/20 10:07:45;;;;;;;43.47;29.90;;;;;;;2.99;100.00;99446.97;4971307;28;20042;-80
2023/12/20 10:10:14;;;;;;;45.60;30.33;;;;;;;3.18;100.00;99430.97;4969499;28;20557;-82
2023/12/20 10:12:40;;;;;;;43.50;29.88;;;;;;;3.32;100.00;99433.50;4970802;28;20395;-84
2023/12/20 10:15:06;;;;;;;45.75;31.15;;;;;;;3.42;100.00;99439.78;4970654;28;20549;-83
2023/12/20 10:17:32;;;;;;;42.08;29.02;;;;;;;3.52;100.00;99448.69;4970062;28;20027;-84
2023/12/20 10:19:58;;;;;;;46.35;30.50;;;;;;;3.54;100.00;99444.19;4965187;28;20074;-83
2023/12/20 10:22:24;;;;;;;40.90;30.38;;;;;;;3.34;100.00;99442.06;4984188;28;20031;-83
2023/12/20 10:24:49;;;;;;;42.40;29.95;;;;;;;3.37;100.00;99439.25;4968206;28;20059;-84
2023/12/20 10:27:19;;;;;;;41.20;30.77;;;;;;;3.36;100.00;99445.41;4973307;28;20034;-83
2023/12/20 10:29:44;;;;;;;41.60;28.17;;;;;;;3.45;100.00;99443.97;4966443;28;21286;-83
2023/12/20 10:32:23;;;;;;;45.70;28.27;;;;;;;3.44;100.00;99440.53;4972241;28;20535;-83
2023/12/20 10:34:49;;;;;;;45.30;30.08;;;;;;;3.36;100.00;99429.75;4963802;28;20479;-83
2023/12/20 10:37:14;;;;;;;41.45;29.38;;;;;;;3.42;100.00;99424.13;4973106;28;20113;-82
2023/12/20 10:39:42;;;;;;;42.63;29.25;;;;;;;3.64;100.00;99416.56;4966481;28;20038;-83
2023/12/20 10:42:11;;;;;;;43.78;28.48;;;;;;;3.69;100.00;99431.91;4966678;28;20027;-83
2023/12/20 10:44:36;;;;;;;41.90;28.90;;;;;;;3.75;100.00;99431.50;4966869;28;20027;-84
2023/12/20 10:47:03;;;;;;;40.70;27.85;;;;;;;3.68;100.00;99443.28;4970346;28;20109;-83
2023/12/20 10:49:30;;;;;;;42.85;29.45;;;;;;;3.73;100.00;99438.59;4967543;28;20106;-83
2023/12/20 10:51:59;;;;;;;44.63;28.52;;;;;;;3.80;100.00;99433.81;4964138;28;20042;-83
2023/12/20 10:54:25;;;;;;;42.47;28.50;;;;;;;3.88;100.00;99426.31;4967953;28;20036;-82
2023/12/20 10:56:52;;;;;;;46.08;30.30;;;;;;;3.99;100.00;99413.34;4968975;28;20034;-82
2023/12/20 10:59:20;;;;;;;41.33;29.63;;;;;;;4.11;100.00;99422.97;4963310;28;20031;-83
2023/12/20 11:01:48;;;;;;;46.10;30.75;;;;;;;4.25;100.00;99433.28;4966847;28;20035;-82
2023/12/20 11:04:22;;;;;;;44.42;29.17;;;;;;;4.35;100.00;99426.50;4968965;28;20043;-83
2023/12/20 11:07:16;;;;;;;41.22;28.40;;;;;;;4.42;100.00;99417.25;4964233;28;20062;-83
2023/12/20 11:09:49;;;;;;;45.78;29.67;;;;;;;4.54;100.00;99416.41;4969143;28;20031;-83
2023/12/20 11:12:40;;;;;;;42.08;29.83;;;;;;;4.61;100.00;99406.34;4965907;28;20141;-84